Time,TemperatureF,DewpointF,PressureIn,WindDirection,WindDirectionDegrees,WindSpeedMPH,WindSpeedGustMPH,Humidity,HourlyPrecipIn,Conditions,Clouds,dailyrainin,SoftwareType,DateUTC
2013-04-25 00:00:00,53.2,48.0,30.26,NNW,336,0.0,0.0,82,0.00,,,0.00,weatherlink.com 1.10,2013-04-25 05:00:00,
2013-04-25 00:15:00,53.3,48.0,30.25,NNW,336,2.0,3.0,82,0.00,,,0.00,weatherlink.com 1.10,2013-04-25 05:15:00,
2013-04-25 00:30:00,53.5,48.0,30.26,NNW,336,0.0,2.0,82,0.00,,,0.00,weatherlink.com 1.10,2013-04-25 05:30:00,
2013-04-25 00:45:00,53.5,48.0,30.25,NNW,336,0.0,2.0,81,0.00,,,0.00,weatherlink.com 1.10,2013-04-25 05:45:00,
2013-04-25 01:00:00,53.4,48.0,30.26,NNW,336,0.0,2.0,81,0.00,,,0.00,weatherlink.com 1.10,2013-04-25 06:00:00,
2013-04-25 01:15:00,53.6,47.0,30.26,NNW,336,0.0,3.0,79,0.00,,,0.00,weatherlink.com 1.10,2013-04-25 06:15:00,
2013-04-25 01:30:00,53.6,47.0,30.26,NNW,336,0.0,2.0,79,0.00,,,0.00,weatherlink.com 1.10,2013-04-25 06:30:00,
2013-04-25 01:45:00,53.8,48.0,30.27,NNW,336,0.0,1.0,80,0.00,,,0.00,weatherlink.com 1.10,2013-04-25 06:45:00,
2013-04-25 02:00:00,53.9,48.0,30.26,NNW,336,0.0,0.0,80,0.00,,,0.00,weatherlink.com 1.10,2013-04-25 07:00:00,
2013-04-25 02:15:00,54.0,48.0,30.26,NNW,336,0.0,1.0,79,0.00,,,0.00,weatherlink.com 1.10,2013-04-25 07:15:00,
2013-04-25 02:30:00,54.1,48.0,30.26,NNW,336,0.0,2.0,80,0.00,,,0.00,weatherlink.com 1.10,2013-04-25 07:30:00,
2013-04-25 02:45:00,54.2,47.0,30.26,NNW,336,0.0,2.0,78,0.00,,,0.00,weatherlink.com 1.10,2013-04-25 07:45:00,
2013-04-25 03:00:00,54.2,47.0,30.26,NW,310,2.0,3.0,76,0.00,,,0.00,weatherlink.com 1.10,2013-04-25 08:00:00,
2013-04-25 03:15:00,54.4,47.0,30.26,NW,310,2.0,3.0,77,0.00,,,0.00,weatherlink.com 1.10,2013-04-25 08:15:00,
2013-04-25 03:30:00,54.3,47.0,30.26,NW,308,0.0,3.0,76,0.00,,,0.00,weatherlink.com 1.10,2013-04-25 08:30:00,
2013-04-25 03:45:00,54.2,47.0,30.26,NW,308,0.0,3.0,77,0.00,,,0.00,weatherlink.com 1.10,2013-04-25 08:45:00,
2013-04-25 04:00:00,54.2,47.0,30.26,NW,308,0.0,2.0,77,0.00,,,0.00,weatherlink.com 1.10,2013-04-25 09:00:00,
2013-04-25 04:15:00,53.9,47.0,30.26,NW,308,1.0,2.0,77,0.00,,,0.00,weatherlink.com 1.10,2013-04-25 09:15:00,
2013-04-25 04:30:00,53.8,47.0,30.26,NW,323,0.0,3.0,78,0.00,,,0.00,weatherlink.com 1.10,2013-04-25 09:30:00,
2013-04-25 04:45:00,53.8,47.0,30.26,WNW,284,1.0,3.0,78,0.00,,,0.00,weatherlink.com 1.10,2013-04-25 09:45:00,
2013-04-25 05:00:00,53.8,47.0,30.26,NW,308,2.0,3.0,79,0.00,,,0.00,weatherlink.com 1.10,2013-04-25 10:00:00,
2013-04-25 05:15:00,53.6,47.0,30.26,West,275,1.0,3.0,79,0.00,,,0.00,weatherlink.com 1.10,2013-04-25 10:15:00,
2013-04-25 05:30:00,53.3,47.0,30.26,WNW,291,0.0,3.0,80,0.00,,,0.00,weatherlink.com 1.10,2013-04-25 10:30:00,
2013-04-25 05:45:00,53.0,47.0,30.27,NNW,331,0.0,3.0,81,0.00,,,0.00,weatherlink.com 1.10,2013-04-25 10:45:00,
2013-04-25 06:00:00,52.9,47.0,30.27,North,5,0.0,6.0,81,0.00,,,0.00,weatherlink.com 1.10,2013-04-25 11:00:00,
2013-04-25 06:15:00,53.0,47.0,30.28,NNW,343,1.0,3.0,81,0.00,,,0.00,weatherlink.com 1.10,2013-04-25 11:15:00,
2013-04-25 06:30:00,53.0,47.0,30.28,NNW,334,1.0,4.0,81,0.00,,,0.00,weatherlink.com 1.10,2013-04-25 11:30:00,
2013-04-25 06:46:00,52.9,47.0,30.29,NW,323,2.0,6.0,79,0.00,,,0.00,weatherlink.com 1.10,2013-04-25 11:46:00,
2013-04-25 07:01:00,52.9,47.0,30.30,NE,36,1.0,3.0,79,0.00,,,0.00,weatherlink.com 1.10,2013-04-25 12:01:00,
2013-04-25 07:16:00,53.0,46.0,30.31,NNE,30,1.0,3.0,78,0.00,,,0.00,weatherlink.com 1.10,2013-04-25 12:16:00,
2013-04-25 07:31:00,53.1,47.0,30.32,NE,53,1.0,3.0,79,0.00,,,0.00,weatherlink.com 1.10,2013-04-25 12:31:00,
2013-04-25 07:46:00,53.3,47.0,30.32,North,11,0.0,3.0,78,0.00,,,0.00,weatherlink.com 1.10,2013-04-25 12:46:00,
2013-04-25 08:01:00,53.6,47.0,30.33,NNW,339,0.0,3.0,78,0.00,,,0.00,weatherlink.com 1.10,2013-04-25 13:01:00,
2013-04-25 08:16:00,54.0,47.0,30.32,NNE,15,0.0,4.0,77,0.00,,,0.00,weatherlink.com 1.10,2013-04-25 13:16:00,
2013-04-25 08:31:00,54.6,47.0,30.33,North,11,3.0,5.0,75,0.00,,,0.00,weatherlink.com 1.10,2013-04-25 13:31:00,
2013-04-25 08:46:00,55.0,47.0,30.33,North,5,3.0,7.0,74,0.00,,,0.00,weatherlink.com 1.10,2013-04-25 13:46:00,
2013-04-25 09:01:00,55.6,47.0,30.34,East,87,0.0,3.0,72,0.00,,,0.00,weatherlink.com 1.10,2013-04-25 14:01:00,
2013-04-25 09:16:00,58.3,47.0,30.34,NW,321,8.0,8.0,66,0.00,,,0.00,weatherlink.com 1.10,2013-04-25 14:16:00,
2013-04-25 09:31:00,58.9,47.0,30.34,SE,131,0.0,8.0,65,0.00,,,0.00,weatherlink.com 1.10,2013-04-25 14:31:00,
2013-04-25 09:46:00,60.7,47.0,30.35,ESE,113,2.0,6.0,60,0.00,,,0.00,weatherlink.com 1.10,2013-04-25 14:46:00,
2013-04-25 10:01:00,61.1,47.0,30.35,SE,136,0.0,5.0,60,0.00,,,0.00,weatherlink.com 1.10,2013-04-25 15:01:00,
2013-04-25 10:16:00,61.9,47.0,30.35,NW,312,3.0,5.0,58,0.00,,,0.00,weatherlink.com 1.10,2013-04-25 15:16:00,
2013-04-25 10:31:00,62.0,45.0,30.34,ENE,58,0.0,8.0,55,0.00,,,0.00,weatherlink.com 1.10,2013-04-25 15:31:00,
2013-04-25 10:46:00,63.5,44.0,30.35,NNW,342,0.0,5.0,50,0.00,,,0.00,weatherlink.com 1.10,2013-04-25 15:46:00,
2013-04-25 11:01:00,65.4,47.0,30.35,SW,232,2.0,3.0,52,0.00,,,0.00,weatherlink.com 1.10,2013-04-25 16:01:00,
2013-04-25 11:16:00,65.1,44.0,30.35,ENE,74,0.0,8.0,46,0.00,,,0.00,weatherlink.com 1.10,2013-04-25 16:16:00,
2013-04-25 11:31:00,66.4,47.0,30.35,NNE,29,3.0,7.0,50,0.00,,,0.00,weatherlink.com 1.10,2013-04-25 16:31:00,
2013-04-25 11:46:00,65.7,43.0,30.35,ESE,117,2.0,5.0,44,0.00,,,0.00,weatherlink.com 1.10,2013-04-25 16:46:00,
2013-04-25 12:01:00,65.8,44.0,30.34,North,351,0.0,6.0,45,0.00,,,0.00,weatherlink.com 1.10,2013-04-25 17:01:00,
2013-04-25 12:16:00,67.3,45.0,30.33,NNE,26,2.0,9.0,44,0.00,,,0.00,weatherlink.com 1.10,2013-04-25 17:16:00,
2013-04-25 12:31:00,68.1,45.0,30.33,ENE,74,3.0,5.0,44,0.00,,,0.00,weatherlink.com 1.10,2013-04-25 17:31:00,
2013-04-25 12:46:00,67.3,43.0,30.33,ENE,67,2.0,5.0,41,0.00,,,0.00,weatherlink.com 1.10,2013-04-25 17:46:00,
2013-04-25 13:01:00,69.2,45.0,30.32,NE,36,2.0,4.0,42,0.00,,,0.00,weatherlink.com 1.10,2013-04-25 18:01:00,
2013-04-25 13:16:00,69.2,45.0,30.31,East,96,2.0,5.0,42,0.00,,,0.00,weatherlink.com 1.10,2013-04-25 18:16:00,
2013-04-25 13:31:00,70.5,45.0,30.31,SE,126,1.0,9.0,40,0.00,,,0.00,weatherlink.com 1.10,2013-04-25 18:31:00,
2013-04-25 13:46:00,68.9,45.0,30.30,ENE,76,0.0,7.0,42,0.00,,,0.00,weatherlink.com 1.10,2013-04-25 18:46:00,
2013-04-25 14:01:00,71.8,44.0,30.29,East,84,1.0,7.0,37,0.00,,,0.00,weatherlink.com 1.10,2013-04-25 19:01:00,
2013-04-25 14:16:00,72.3,47.0,30.29,North,5,2.0,6.0,40,0.00,,,0.00,weatherlink.com 1.10,2013-04-25 19:16:00,
2013-04-25 14:31:00,72.0,45.0,30.29,North,360,1.0,5.0,38,0.00,,,0.00,weatherlink.com 1.10,2013-04-25 19:31:00,
2013-04-25 14:46:00,72.3,44.0,30.29,NNE,24,2.0,6.0,37,0.00,,,0.00,weatherlink.com 1.10,2013-04-25 19:46:00,
2013-04-25 15:02:00,72.9,43.0,30.28,ESE,107,3.0,6.0,34,0.00,,,0.00,weatherlink.com 1.10,2013-04-25 20:02:00,
2013-04-25 15:17:00,73.1,44.0,30.27,South,178,3.0,6.0,35,0.00,,,0.00,weatherlink.com 1.10,2013-04-25 20:17:00,
2013-04-25 15:32:00,72.8,43.0,30.27,ESE,122,1.0,6.0,34,0.00,,,0.00,weatherlink.com 1.10,2013-04-25 20:32:00,
2013-04-25 15:47:00,74.6,45.0,30.26,SSE,160,3.0,4.0,35,0.00,,,0.00,weatherlink.com 1.10,2013-04-25 20:47:00,
2013-04-25 16:02:00,73.2,44.0,30.25,SE,124,0.0,5.0,35,0.00,,,0.00,weatherlink.com 1.10,2013-04-25 21:02:00,
2013-04-25 16:17:00,73.1,44.0,30.25,NE,44,1.0,6.0,35,0.00,,,0.00,weatherlink.com 1.10,2013-04-25 21:17:00,
2013-04-25 16:32:00,72.8,44.0,30.24,SSE,152,2.0,6.0,36,0.00,,,0.00,weatherlink.com 1.10,2013-04-25 21:32:00,
2013-04-25 16:47:00,73.1,44.0,30.24,ENE,75,1.0,7.0,35,0.00,,,0.00,weatherlink.com 1.10,2013-04-25 21:47:00,
2013-04-25 17:02:00,72.3,45.0,30.23,East,90,0.0,3.0,38,0.00,,,0.00,weatherlink.com 1.10,2013-04-25 22:02:00,
2013-04-25 17:17:00,72.0,46.0,30.23,East,98,1.0,7.0,40,0.00,,,0.00,weatherlink.com 1.10,2013-04-25 22:17:00,
2013-04-25 17:32:00,71.7,45.0,30.23,NNE,30,1.0,4.0,39,0.00,,,0.00,weatherlink.com 1.10,2013-04-25 22:32:00,
2013-04-25 17:47:00,70.7,44.0,30.23,South,174,4.0,4.0,38,0.00,,,0.00,weatherlink.com 1.10,2013-04-25 22:47:00,
2013-04-25 18:02:00,70.4,43.0,30.23,SSE,157,2.0,5.0,38,0.00,,,0.00,weatherlink.com 1.10,2013-04-25 23:02:00,
2013-04-25 18:17:00,70.3,43.0,30.23,NE,50,0.0,5.0,38,0.00,,,0.00,weatherlink.com 1.10,2013-04-25 23:17:00,
2013-04-25 18:32:00,70.1,45.0,30.23,ENE,59,2.0,3.0,40,0.00,,,0.00,weatherlink.com 1.10,2013-04-25 23:32:00,
2013-04-25 18:47:00,69.6,45.0,30.23,SE,128,0.0,3.0,41,0.00,,,0.00,weatherlink.com 1.10,2013-04-25 23:47:00,
2013-04-25 19:02:00,69.1,45.0,30.23,East,83,0.0,3.0,42,0.00,,,0.00,weatherlink.com 1.10,2013-04-26 00:02:00,
2013-04-25 19:17:00,68.5,46.0,30.23,East,83,0.0,0.0,44,0.00,,,0.00,weatherlink.com 1.10,2013-04-26 00:17:00,
2013-04-25 19:32:00,67.5,46.0,30.23,East,83,0.0,0.0,46,0.00,,,0.00,weatherlink.com 1.10,2013-04-26 00:32:00,
2013-04-25 19:47:00,66.5,48.0,30.22,East,83,0.0,0.0,51,0.00,,,0.00,weatherlink.com 1.10,2013-04-26 00:47:00,
2013-04-25 20:02:00,65.5,48.0,30.23,East,83,0.0,0.0,54,0.00,,,0.00,weatherlink.com 1.10,2013-04-26 01:02:00,
2013-04-25 20:17:00,64.3,47.0,30.23,East,83,0.0,0.0,54,0.00,,,0.00,weatherlink.com 1.10,2013-04-26 01:17:00,
2013-04-25 20:32:00,62.8,48.0,30.23,East,83,0.0,0.0,59,0.00,,,0.00,weatherlink.com 1.10,2013-04-26 01:32:00,
2013-04-25 20:47:00,62.1,48.0,30.23,East,83,0.0,0.0,60,0.00,,,0.00,weatherlink.com 1.10,2013-04-26 01:47:00,
2013-04-25 21:02:00,61.8,50.0,30.23,East,83,0.0,0.0,65,0.00,,,0.00,weatherlink.com 1.10,2013-04-26 02:02:00,
2013-04-25 21:17:00,61.2,49.0,30.23,East,83,0.0,0.0,65,0.00,,,0.00,weatherlink.com 1.10,2013-04-26 02:17:00,
2013-04-25 21:32:00,60.7,50.0,30.24,East,83,0.0,0.0,68,0.00,,,0.00,weatherlink.com 1.10,2013-04-26 02:32:00,
2013-04-25 21:47:00,60.0,49.0,30.25,East,83,0.0,0.0,68,0.00,,,0.00,weatherlink.com 1.10,2013-04-26 02:47:00,
2013-04-25 22:02:00,59.4,50.0,30.25,East,83,0.0,0.0,70,0.00,,,0.00,weatherlink.com 1.10,2013-04-26 03:02:00,
2013-04-25 22:17:00,58.9,49.0,30.25,East,83,0.0,0.0,71,0.00,,,0.00,weatherlink.com 1.10,2013-04-26 03:17:00,
2013-04-25 22:32:00,58.5,49.0,30.25,East,83,0.0,0.0,72,0.00,,,0.00,weatherlink.com 1.10,2013-04-26 03:32:00,
2013-04-25 22:47:00,58.3,49.0,30.25,East,83,0.0,0.0,72,0.00,,,0.00,weatherlink.com 1.10,2013-04-26 03:47:00,
2013-04-25 23:02:00,58.1,49.0,30.25,East,83,0.0,0.0,73,0.00,,,0.00,weatherlink.com 1.10,2013-04-26 04:02:00,
2013-04-25 23:17:00,58.5,49.0,30.26,East,93,0.0,2.0,70,0.00,,,0.00,weatherlink.com 1.10,2013-04-26 04:17:00,
2013-04-25 23:32:00,58.9,50.0,30.25,East,93,0.0,0.0,73,0.00,,,0.00,weatherlink.com 1.10,2013-04-26 04:32:00,
2013-04-25 23:47:00,58.8,48.0,30.25,ESE,111,0.0,3.0,68,0.00,,,0.00,weatherlink.com 1.10,2013-04-26 04:47:00,